Time;durP1;ratioP1;P1;durP2;ratioP2;P2;SDS_P1;SDS_P2;PMS_P1;PMS_P2;Temp;Humidity;BMP_temperature;BMP_pressure;BME280_temperature;BME280_humidity;BME280_pressure;Samples;Min_cycle;Max_cycle;Signal;HPM_P1;HPM_P2
2023/01/08 00:01:53;;;;;;;9.63;6.10;;;;;;;0.98;93.09;95928.13;5079559;28;20066;-78
2023/01/08 00:04:21;;;;;;;8.98;5.97;;;;;;;0.96;93.40;95931.06;5077656;28;20510;-78
2023/01/08 00:06:47;;;;;;;10.02;5.82;;;;;;;0.95;93.46;95924.09;5071992;28;20040;-78
2023/01/08 00:09:14;;;;;;;12.57;6.38;;;;;;;0.94;93.63;95919.00;5079555;28;20054;-78
2023/01/08 00:11:41;;;;;;;9.02;6.05;;;;;;;0.98;94.04;95914.72;5073115;28;20111;-78
2023/01/08 00:14:08;;;;;;;9.45;5.68;;;;;;;1.01;94.27;95906.13;5081181;28;20530;-78
2023/01/08 00:16:35;;;;;;;10.60;5.95;;;;;;;1.01;94.50;95914.19;5071253;28;20051;-78
2023/01/08 00:19:01;;;;;;;9.93;5.72;;;;;;;0.99;94.86;95901.06;5079383;28;20074;-78
2023/01/08 00:21:29;;;;;;;10.07;6.47;;;;;;;0.96;94.90;95908.81;5081021;28;20503;-78
2023/01/08 00:23:56;;;;;;;9.63;6.25;;;;;;;0.99;94.95;95902.91;5075142;28;20037;-78
2023/01/08 00:26:22;;;;;;;11.10;6.20;;;;;;;1.05;94.88;95899.19;5070731;28;20052;-78
2023/01/08 00:28:49;;;;;;;9.98;6.45;;;;;;;1.03;95.16;95890.56;5076031;28;20059;-77
2023/01/08 00:31:15;;;;;;;11.27;6.43;;;;;;;1.09;94.96;95886.81;5093040;28;20040;-77
2023/01/08 00:33:42;;;;;;;16.17;7.72;;;;;;;1.07;94.96;95878.25;5084260;28;20051;-77
2023/01/08 00:36:11;;;;;;;11.30;6.78;;;;;;;1.08;94.98;95877.16;5078437;28;20068;-78
2023/01/08 00:38:39;;;;;;;12.00;6.93;;;;;;;1.11;94.72;95868.59;5086709;28;20052;-76
2023/01/08 00:41:06;;;;;;;12.45;7.25;;;;;;;1.10;94.75;95864.31;5087332;28;20057;-77
2023/01/08 00:43:32;;;;;;;18.02;8.32;;;;;;;1.13;94.61;95855.72;5089681;28;20122;-77
2023/01/08 00:45:59;;;;;;;16.45;8.65;;;;;;;1.14;93.98;95861.88;5088834;28;20101;-77
2023/01/08 00:48:26;;;;;;;19.17;9.90;;;;;;;1.11;94.15;95857.88;5089917;28;20047;-77
2023/01/08 00:50:53;;;;;;;17.20;8.82;;;;;;;1.08;93.93;95863.75;5082652;28;20040;-79
2023/01/08 00:53:21;;;;;;;14.85;8.48;;;;;;;1.00;94.19;95856.28;5090140;28;20039;-78
2023/01/08 00:55:50;;;;;;;15.75;8.30;;;;;;;0.97;94.15;95854.13;5082038;28;20048;-75
2023/01/08 00:58:16;;;;;;;21.40;10.20;;;;;;;0.94;94.45;95860.00;5080759;28;20044;-76
2023/01/08 01:00:43;;;;;;;19.80;10.13;;;;;;;0.97;94.67;95862.16;5089906;28;20035;-77
2023/01/08 01:03:09;;;;;;;24.27;12.32;;;;;;;0.96;94.72;95865.94;5089378;28;20441;-76
2023/01/08 01:05:36;;;;;;;21.20;10.82;;;;;;;0.96;94.89;95856.00;5082809;28;20046;-77
2023/01/08 01:08:02;;;;;;;20.33;10.32;;;;;;;0.93;95.24;95850.38;5081268;28;20039;-76
2023/01/08 01:10:29;;;;;;;18.67;9.77;;;;;;;0.92;95.21;95854.13;5077706;28;20045;-76
2023/01/08 01:12:57;;;;;;;15.77;8.25;;;;;;;0.94;95.48;95854.66;5076774;28;20044;-76
2023/01/08 01:15:24;;;;;;;15.30;7.60;;;;;;;0.94;94.91;95857.31;5081529;28;20043;-76
2023/01/08 01:17:50;;;;;;;14.93;7.32;;;;;;;0.92;94.78;95854.13;5074807;28;20047;-75
2023/01/08 01:20:17;;;;;;;13.95;7.97;;;;;;;0.86;94.94;95849.84;5080744;28;20044;-76
2023/01/08 01:22:44;;;;;;;14.05;7.38;;;;;;;0.85;95.22;95853.59;5083790;28;20048;-77
2023/01/08 01:25:10;;;;;;;12.57;7.28;;;;;;;0.83;95.32;95858.41;5071020;28;20045;-77
2023/01/08 01:27:37;;;;;;;12.77;6.28;;;;;;;0.83;95.46;95866.44;5084857;28;20500;-75
2023/01/08 01:30:07;;;;;;;12.10;6.88;;;;;;;0.80;95.45;95861.66;5070314;28;20044;-75
2023/01/08 01:32:33;;;;;;;11.35;6.25;;;;;;;0.77;95.42;95863.78;5078896;28;20158;-78
2023/01/08 01:35:00;;;;;;;10.93;6.30;;;;;;;0.77;95.50;95853.03;5070355;28;20633;-76
2023/01/08 01:37:27;;;;;;;9.32;6.10;;;;;;;0.78;95.24;95856.53;5073757;28;20051;-77
2023/01/08 01:39:55;;;;;;;11.40;6.15;;;;;;;0.76;95.28;95851.44;5074058;28;20059;-77
2023/01/08 01:42:39;;;;;;;10.35;6.40;;;;;;;0.74;95.31;95850.13;5076082;28;20047;-77
2023/01/08 01:45:15;;;;;;;9.57;5.57;;;;;;;0.72;95.36;95861.09;5085707;28;20516;-76
2023/01/08 01:47:42;;;;;;;12.38;6.35;;;;;;;0.67;95.23;95850.38;5058338;28;20053;-78
2023/01/08 01:50:13;;;;;;;8.80;5.68;;;;;;;0.64;95.46;95842.06;5049457;28;20400;-75
2023/01/08 01:52:45;;;;;;;9.20;5.70;;;;;;;0.61;95.58;95840.72;5056666;28;20041;-77
2023/01/08 01:55:14;;;;;;;8.63;5.82;;;;;;;0.52;96.05;95836.94;5064074;28;20522;-79
2023/01/08 01:57:45;;;;;;;9.27;5.55;;;;;;;0.51;96.13;95833.47;5063193;28;20049;-76
2023/01/08 02:00:14;;;;;;;10.80;6.07;;;;;;;0.53;96.40;95835.91;5050675;28;20053;-79
2023/01/08 02:02:40;;;;;;;10.02;5.38;;;;;;;0.51;96.13;95838.81;5050341;28;20400;-78
2023/01/08 02:05:08;;;;;;;9.10;5.93;;;;;;;0.51;96.05;95844.19;5057453;28;20052;-79
2023/01/08 02:07:43;;;;;;;9.48;5.63;;;;;;;0.49;96.25;95840.97;5057186;28;20045;-77
2023/01/08 02:10:14;;;;;;;8.93;5.18;;;;;;;0.48;96.16;95830.53;5057143;28;20500;-79
2023/01/08 02:12:46;;;;;;;10.25;6.10;;;;;;;0.46;96.19;95828.09;5062283;28;20044;-76
2023/01/08 02:15:22;;;;;;;12.07;5.95;;;;;;;0.48;96.24;95825.19;5052142;28;20055;-77
2023/01/08 02:17:54;;;;;;;8.57;5.75;;;;;;;0.43;96.32;95822.50;5060225;28;20048;-76
2023/01/08 02:20:29;;;;;;;9.30;6.07;;;;;;;0.46;96.70;95825.44;5060562;28;20100;-76
2023/01/08 02:23:20;;;;;;;11.23;6.40;;;;;;;0.44;96.20;95821.44;5053830;28;20489;-76
2023/01/08 02:26:10;;;;;;;11.18;5.93;;;;;;;0.44;96.24;95816.06;5064458;28;20048;-77
2023/01/08 02:28:41;;;;;;;11.52;6.65;;;;;;;0.41;96.22;95817.38;5062569;28;20045;-76
2023/01/08 02:31:08;;;;;;;11.25;6.53;;;;;;;0.45;96.31;95823.03;5061186;28;20443;-77
2023/01/08 02:33:35;;;;;;;10.23;6.35;;;;;;;0.40;96.20;95831.06;5053943;28;20049;-77
2023/01/08 02:36:21;;;;;;;10.40;6.22;;;;;;;0.42;95.74;95812.88;5053146;28;20053;-76
2023/01/08 02:39:00;;;;;;;11.02;6.43;;;;;;;0.34;95.70;95800.00;5070921;28;20064;-75
2023/01/08 02:41:36;;;;;;;10.55;6.05;;;;;;;0.31;95.99;95800.50;5056205;28;20052;-78
2023/01/08 02:44:08;;;;;;;13.20;6.50;;;;;;;0.28;96.13;95790.34;5064000;28;20036;-78
2023/01/08 02:46:37;;;;;;;11.65;6.45;;;;;;;0.27;96.14;95780.72;5064055;28;20048;-79
2023/01/08 02:49:09;;;;;;;11.68;6.15;;;;;;;0.22;96.34;95766.25;5055006;28;20045;-78
2023/01/08 02:51:43;;;;;;;11.05;6.28;;;;;;;0.24;96.11;95769.44;5058363;28;20047;-78
2023/01/08 02:54:14;;;;;;;11.98;6.85;;;;;;;0.24;96.43;95774.78;5062268;28;20057;-78
2023/01/08 02:56:46;;;;;;;11.55;6.15;;;;;;;0.27;96.42;95784.19;5056517;28;20040;-77
2023/01/08 02:59:15;;;;;;;13.10;7.03;;;;;;;0.21;96.28;95767.31;5061894;28;20051;-78
2023/01/08 03:01:43;;;;;;;11.07;6.20;;;;;;;0.20;96.49;95770.25;5052754;28;20061;-79
2023/01/08 03:04:15;;;;;;;10.10;6.28;;;;;;;0.15;96.76;95760.31;5051921;28;20128;-78
2023/01/08 03:06:42;;;;;;;11.07;6.50;;;;;;;0.17;96.45;95768.91;5055090;28;20052;-77
2023/01/08 03:09:09;;;;;;;11.07;5.85;;;;;;;0.14;96.76;95766.75;5061868;28;20458;-78
2023/01/08 03:11:41;;;;;;;11.25;6.65;;;;;;;0.13;96.93;95767.81;5055766;28;20044;-78
2023/01/08 03:14:13;;;;;;;12.48;6.10;;;;;;;0.15;96.86;95762.19;5053565;28;20045;-77
2023/01/08 03:16:45;;;;;;;13.23;6.28;;;;;;;0.07;96.99;95768.09;5054425;28;20057;-76
2023/01/08 03:19:16;;;;;;;12.75;6.47;;;;;;;0.08;97.08;95769.69;5061079;28;20064;-76
2023/01/08 03:21:45;;;;;;;12.98;5.68;;;;;;;0.11;96.35;95774.53;5058523;28;20041;-76
2023/01/08 03:24:13;;;;;;;9.48;5.40;;;;;;;0.09;96.02;95769.41;5052894;28;20049;-78
2023/01/08 03:26:41;;;;;;;10.27;5.10;;;;;;;0.11;96.02;95769.19;5057533;28;20512;-79
2023/01/08 03:29:12;;;;;;;9.13;5.50;;;;;;;0.11;96.45;95778.00;5053411;28;20052;-77
2023/01/08 03:31:40;;;;;;;8.20;5.65;;;;;;;0.06;95.88;95778.00;5065571;28;20044;-76
2023/01/08 03:34:08;;;;;;;7.18;4.80;;;;;;;-0.09;96.42;95783.31;5068406;28;20045;-76
2023/01/08 03:36:36;;;;;;;8.20;4.70;;;;;;;-0.03;96.69;95777.72;5059988;28;20052;-76
2023/01/08 03:39:10;;;;;;;8.32;4.60;;;;;;;0.04;96.79;95769.41;5050887;28;20052;-76
2023/01/08 03:41:36;;;;;;;8.02;4.43;;;;;;;-0.04;97.34;95772.63;5064132;28;20388;-76
2023/01/08 03:44:03;;;;;;;7.53;4.60;;;;;;;-0.05;98.40;95754.97;5061240;28;20114;-76
2023/01/08 03:46:34;;;;;;;7.88;4.40;;;;;;;0.08;98.13;95743.72;5059419;28;20128;-76
2023/01/08 03:49:02;;;;;;;7.18;4.78;;;;;;;0.14;97.68;95745.34;5052811;28;20048;-76
2023/01/08 03:51:28;;;;;;;9.23;5.35;;;;;;;0.14;97.49;95739.97;5051492;28;20045;-78
2023/01/08 03:53:59;;;;;;;9.68;5.63;;;;;;;0.11;97.64;95739.72;5062171;28;20056;-78
2023/01/08 03:56:25;;;;;;;9.05;5.65;;;;;;;0.18;97.95;95735.72;5060323;28;20041;-76
2023/01/08 03:58:52;;;;;;;9.57;5.38;;;;;;;0.20;97.41;95733.56;5061375;28;20128;-78
2023/01/08 04:01:18;;;;;;;8.23;4.95;;;;;;;0.19;97.13;95739.97;5054057;28;20084;-78
2023/01/08 04:03:46;;;;;;;8.57;4.97;;;;;;;0.20;96.83;95736.22;5064105;28;20047;-77
2023/01/08 04:06:13;;;;;;;6.38;4.10;;;;;;;0.20;96.65;95725.53;5054149;28;20053;-78
2023/01/08 04:08:39;;;;;;;7.65;4.47;;;;;;;0.22;96.34;95718.03;5052157;28;20037;-78
2023/01/08 04:11:06;;;;;;;6.57;4.32;;;;;;;0.23;96.08;95708.94;5060244;28;20045;-78
2023/01/08 04:13:32;;;;;;;7.10;4.25;;;;;;;0.24;96.09;95702.50;5057704;28;20040;-79
2023/01/08 04:15:59;;;;;;;7.07;4.03;;;;;;;0.20;95.87;95693.38;5053868;28;20045;-78
2023/01/08 04:18:25;;;;;;;5.95;3.60;;;;;;;0.20;95.79;95696.06;5051153;28;20049;-78
2023/01/08 04:20:53;;;;;;;7.30;4.40;;;;;;;0.19;95.67;95689.09;5050916;28;20045;-78
2023/01/08 04:23:19;;;;;;;5.88;4.05;;;;;;;0.19;95.67;95680.28;5052162;28;20053;-79
2023/01/08 04:25:46;;;;;;;6.20;4.05;;;;;;;0.18;95.70;95679.47;5051154;28;20048;-76
2023/01/08 04:28:12;;;;;;;6.35;3.78;;;;;;;0.18;95.48;95684.03;5057929;28;20044;-77
2023/01/08 04:30:39;;;;;;;6.25;3.58;;;;;;;0.17;95.41;95680.56;5051329;28;20045;-76
2023/01/08 04:33:05;;;;;;;7.05;4.00;;;;;;;0.18;95.19;95690.19;5060793;28;20052;-77
2023/01/08 04:35:32;;;;;;;5.15;3.42;;;;;;;0.18;94.58;95695.53;5058014;28;20047;-76
2023/01/08 04:38:00;;;;;;;6.85;3.92;;;;;;;0.21;94.21;95695.03;5058864;28;20049;-77
2023/01/08 04:40:26;;;;;;;5.85;3.78;;;;;;;0.06;93.02;95697.69;5050437;28;20041;-77
2023/01/08 04:42:52;;;;;;;6.45;3.70;;;;;;;0.04;93.14;95702.50;5057660;28;20049;-77
2023/01/08 04:45:19;;;;;;;5.70;3.60;;;;;;;0.02;93.07;95701.16;5061525;28;20056;-78
2023/01/08 04:47:46;;;;;;;6.25;3.65;;;;;;;0.02;93.16;95701.97;5055230;28;20052;-78
2023/01/08 04:50:12;;;;;;;5.95;3.83;;;;;;;-0.08;93.55;95692.06;5057990;28;20049;-78
2023/01/08 04:52:39;;;;;;;6.65;3.65;;;;;;;-0.05;94.57;95686.19;5051162;28;20045;-79
2023/01/08 04:55:07;;;;;;;6.63;3.58;;;;;;;-0.02;94.41;95682.94;5066732;28;20051;-78
2023/01/08 04:57:34;;;;;;;6.45;3.80;;;;;;;-0.02;94.38;95668.78;5055097;28;20492;-78
2023/01/08 05:00:00;;;;;;;5.85;3.83;;;;;;;0.03;94.46;95676.81;5053640;28;20428;-79
2023/01/08 05:02:27;;;;;;;5.70;3.72;;;;;;;0.03;94.46;95676.00;5049639;28;20045;-78
2023/01/08 05:04:53;;;;;;;7.75;3.45;;;;;;;0.08;94.70;95671.44;5058384;28;20094;-78
2023/01/08 05:07:20;;;;;;;4.95;3.35;;;;;;;0.06;94.86;95665.56;5049669;28;20052;-78
2023/01/08 05:09:46;;;;;;;5.13;3.47;;;;;;;0.11;94.79;95662.09;5056779;28;20036;-79
2023/01/08 05:12:14;;;;;;;6.55;3.80;;;;;;;0.14;94.72;95654.31;5059670;28;20102;-77
2023/01/08 05:14:40;;;;;;;6.13;3.60;;;;;;;0.10;94.44;95650.56;5056108;28;20532;-78
2023/01/08 05:17:07;;;;;;;5.55;3.60;;;;;;;0.08;94.53;95639.31;5049701;28;20049;-77
2023/01/08 05:19:33;;;;;;;4.50;2.95;;;;;;;0.09;94.39;95650.84;5050351;28;20044;-78
2023/01/08 05:22:00;;;;;;;5.97;3.42;;;;;;;0.08;94.19;95652.72;5055728;28;20109;-78
2023/01/08 05:24:26;;;;;;;6.20;3.67;;;;;;;0.09;94.20;95657.00;5057773;28;20052;-79
2023/01/08 05:26:53;;;;;;;4.55;2.92;;;;;;;0.09;94.39;95653.50;5050014;28;20045;-78
2023/01/08 05:29:21;;;;;;;4.72;3.00;;;;;;;0.13;94.23;95654.59;5049342;28;20053;-79
2023/01/08 05:31:47;;;;;;;5.78;3.10;;;;;;;0.14;93.93;95666.91;5050133;28;20045;-78
2023/01/08 05:34:13;;;;;;;5.32;3.00;;;;;;;0.17;93.62;95661.81;5057048;28;20049;-78
2023/01/08 05:36:40;;;;;;;6.05;3.00;;;;;;;0.20;93.52;95661.25;5050402;28;20049;-78
2023/01/08 05:39:06;;;;;;;5.25;2.95;;;;;;;0.23;93.61;95655.38;5055009;28;20055;-78
2023/01/08 05:41:33;;;;;;;4.57;3.10;;;;;;;0.27;93.49;95642.25;5065212;28;20049;-78
2023/01/08 05:44:00;;;;;;;5.63;3.42;;;;;;;0.28;93.47;95649.22;5062722;28;20041;-77
2023/01/08 05:46:28;;;;;;;5.28;2.90;;;;;;;0.32;93.21;95642.25;5050669;28;20041;-78
2023/01/08 05:48:54;;;;;;;4.55;2.67;;;;;;;0.34;92.80;95639.31;5050997;28;20052;-78
2023/01/08 05:51:21;;;;;;;5.10;2.90;;;;;;;0.35;92.80;95636.34;5050572;28;20080;-76
2023/01/08 05:53:47;;;;;;;4.00;2.80;;;;;;;0.36;92.69;95631.78;5064377;28;20412;-76
2023/01/08 05:56:14;;;;;;;6.53;2.80;;;;;;;0.38;92.71;95635.81;5053926;28;20053;-76
2023/01/08 05:58:40;;;;;;;6.82;3.03;;;;;;;0.40;92.73;95632.84;5060507;28;20037;-76
2023/01/08 06:01:09;;;;;;;4.65;2.95;;;;;;;0.40;92.17;95638.22;5060976;28;20159;-77
2023/01/08 06:03:37;;;;;;;4.15;3.00;;;;;;;0.40;91.76;95632.84;5052466;28;20055;-77
2023/01/08 06:06:05;;;;;;;4.63;2.80;;;;;;;0.36;91.55;95639.81;5053332;28;20052;-78
2023/01/08 06:08:34;;;;;;;4.88;2.75;;;;;;;0.33;91.18;95637.69;5059245;28;20407;-79
2023/01/08 06:11:01;;;;;;;5.28;3.30;;;;;;;0.33;91.13;95621.63;5062310;28;20045;-77
2023/01/08 06:13:28;;;;;;;4.75;2.92;;;;;;;0.36;91.02;95632.59;5064416;28;20408;-76
2023/01/08 06:15:55;;;;;;;5.65;3.40;;;;;;;0.36;90.78;95637.94;5066048;28;20052;-77
2023/01/08 06:18:22;;;;;;;6.22;3.17;;;;;;;0.32;90.26;95633.44;5069267;28;20056;-77
2023/01/08 06:20:49;;;;;;;4.88;3.13;;;;;;;0.30;89.83;95639.03;5070919;28;20045;-77
2023/01/08 06:23:16;;;;;;;6.35;3.95;;;;;;;0.15;89.48;95658.59;5064856;28;20044;-76
2023/01/08 06:25:42;;;;;;;6.85;4.45;;;;;;;0.11;90.05;95656.75;5073680;28;20070;-77
2023/01/08 06:28:09;;;;;;;6.53;4.20;;;;;;;0.15;90.38;95653.22;5069579;28;20044;-76
2023/01/08 06:30:35;;;;;;;6.20;3.60;;;;;;;0.20;90.74;95661.25;5065951;28;20051;-77
2023/01/08 06:33:03;;;;;;;6.07;3.47;;;;;;;0.22;90.97;95667.16;5073259;28;20079;-78
2023/01/08 06:35:30;;;;;;;6.70;4.05;;;;;;;0.28;90.74;95667.16;5073795;28;20049;-78
2023/01/08 06:37:58;;;;;;;7.05;3.95;;;;;;;0.31;91.05;95661.25;5073316;28;20045;-78
2023/01/08 06:40:24;;;;;;;7.00;3.20;;;;;;;0.37;91.35;95657.53;5064716;28;20123;-77
2023/01/08 06:42:51;;;;;;;6.90;3.50;;;;;;;0.38;91.75;95657.25;5064715;28;20048;-78
2023/01/08 06:45:17;;;;;;;6.22;3.60;;;;;;;0.36;91.73;95663.94;5056572;28;20053;-77
2023/01/08 06:47:44;;;;;;;6.45;3.75;;;;;;;0.36;91.90;95651.34;5069798;28;20041;-76
2023/01/08 06:50:11;;;;;;;6.53;4.00;;;;;;;0.32;91.88;95641.47;5054753;28;20052;-78
2023/01/08 06:52:37;;;;;;;8.50;4.28;;;;;;;0.36;91.64;95642.50;5055032;28;20106;-79
2023/01/08 06:55:06;;;;;;;5.45;3.40;;;;;;;0.39;91.45;95631.25;5056105;28;20063;-78
2023/01/08 06:57:33;;;;;;;6.28;3.45;;;;;;;0.42;91.72;95634.22;5054034;28;20059;-78
2023/01/08 06:59:59;;;;;;;7.38;4.05;;;;;;;0.44;91.30;95639.28;5055447;28;20520;-77
2023/01/08 07:02:26;;;;;;;6.35;3.78;;;;;;;0.23;91.46;95655.38;5055462;28;20056;-78
2023/01/08 07:04:52;;;;;;;5.57;3.00;;;;;;;0.09;92.59;95665.03;5055481;28;20049;-77
2023/01/08 07:07:19;;;;;;;4.68;2.70;;;;;;;0.23;92.21;95649.22;5054816;28;20048;-78
2023/01/08 07:09:45;;;;;;;6.03;3.17;;;;;;;0.35;91.84;95646.25;5066853;28;20040;-76
2023/01/08 07:12:14;;;;;;;5.80;3.17;;;;;;;0.43;91.76;95659.13;5061578;28;20694;-78
2023/01/08 07:14:41;;;;;;;7.45;2.85;;;;;;;0.27;91.81;95655.66;5054728;28;20052;-77
2023/01/08 07:17:07;;;;;;;5.05;2.80;;;;;;;0.36;91.76;95645.97;5055763;28;20045;-77
2023/01/08 07:19:34;;;;;;;4.55;2.83;;;;;;;0.44;90.89;95652.69;5058068;28;20079;-77
2023/01/08 07:22:01;;;;;;;5.95;3.08;;;;;;;0.44;90.91;95660.72;5070313;28;20052;-76
2023/01/08 07:24:27;;;;;;;4.47;2.85;;;;;;;0.29;91.05;95674.13;5059549;28;20485;-76
2023/01/08 07:26:54;;;;;;;5.35;2.90;;;;;;;0.39;91.52;95684.81;5069536;28;20051;-76
2023/01/08 07:29:22;;;;;;;4.47;2.63;;;;;;;0.43;91.61;95680.53;5060930;28;20048;-77
2023/01/08 07:31:48;;;;;;;4.32;2.63;;;;;;;0.53;91.50;95669.81;5065781;28;20504;-77
2023/01/08 07:34:15;;;;;;;6.68;3.03;;;;;;;0.55;91.18;95683.72;5054961;28;20076;-77
2023/01/08 07:36:41;;;;;;;4.65;3.10;;;;;;;0.57;91.18;95686.94;5060285;28;20044;-76
2023/01/08 07:39:08;;;;;;;6.00;2.90;;;;;;;0.65;90.75;95677.53;5055337;28;20049;-77
2023/01/08 07:41:34;;;;;;;4.93;3.13;;;;;;;0.76;90.75;95676.44;5065570;28;20522;-78
2023/01/08 07:44:01;;;;;;;6.38;2.80;;;;;;;0.84;90.73;95670.53;5062420;28;20420;-77
2023/01/08 07:46:29;;;;;;;6.68;3.25;;;;;;;0.91;90.92;95671.03;5052681;28;20048;-77
2023/01/08 07:48:56;;;;;;;4.55;2.70;;;;;;;1.00;91.05;95657.88;5060067;28;20053;-76
2023/01/08 07:51:23;;;;;;;5.18;3.20;;;;;;;1.04;91.30;95654.38;5064742;28;20053;-77
2023/01/08 07:53:50;;;;;;;6.43;3.38;;;;;;;1.12;91.36;95654.88;5056412;28;20049;-78
2023/01/08 07:56:16;;;;;;;6.28;3.28;;;;;;;1.20;90.79;95649.75;5055905;28;20413;-76
2023/01/08 07:58:43;;;;;;;4.38;2.97;;;;;;;1.27;90.39;95644.88;5048315;28;20049;-77
2023/01/08 08:01:11;;;;;;;7.88;3.50;;;;;;;1.35;90.19;95648.06;5056044;28;20060;-77
2023/01/08 08:03:39;;;;;;;4.38;2.90;;;;;;;1.40;90.06;95646.16;5061980;28;20047;-77
2023/01/08 08:06:06;;;;;;;4.47;2.85;;;;;;;1.46;89.79;95654.97;5050912;28;20044;-76
2023/01/08 08:08:34;;;;;;;5.32;2.90;;;;;;;1.50;89.22;95656.81;5063839;28;20044;-77
2023/01/08 08:11:01;;;;;;;5.65;3.30;;;;;;;1.54;88.79;95657.88;5056464;28;20051;-76
2023/01/08 08:13:27;;;;;;;5.03;2.90;;;;;;;1.60;89.04;95665.91;5062062;28;20048;-78
2023/01/08 08:15:54;;;;;;;6.90;3.63;;;;;;;1.65;88.26;95663.97;5056536;28;20059;-77
2023/01/08 08:18:20;;;;;;;6.40;3.83;;;;;;;1.71;88.48;95665.56;5056456;28;20037;-77
2023/01/08 08:20:50;;;;;;;5.50;3.45;;;;;;;1.79;88.80;95661.50;5063298;28;20047;-77
2023/01/08 08:23:17;;;;;;;7.82;3.85;;;;;;;1.86;88.63;95663.84;5063305;28;20557;-77
2023/01/08 08:25:43;;;;;;;8.40;4.18;;;;;;;1.85;88.58;95662.25;5054000;28;20044;-78
2023/01/08 08:28:11;;;;;;;7.80;4.82;;;;;;;1.89;88.32;95655.25;5049368;28;20045;-77
2023/01/08 08:30:38;;;;;;;7.53;5.03;;;;;;;1.95;87.63;95648.75;5056823;28;20072;-78
2023/01/08 08:33:07;;;;;;;8.48;4.65;;;;;;;1.98;86.78;95648.97;5054470;28;20056;-77
2023/01/08 08:35:34;;;;;;;5.95;3.75;;;;;;;2.06;85.82;95653.75;5055367;28;20052;-77
2023/01/08 08:38:03;;;;;;;6.70;3.65;;;;;;;2.10;83.71;95664.75;5055671;28;20053;-78
2023/01/08 08:40:30;;;;;;;5.47;3.45;;;;;;;2.15;83.60;95661.22;5060608;28;20045;-77
2023/01/08 08:42:58;;;;;;;6.00;3.30;;;;;;;2.23;83.13;95668.66;5064847;28;20053;-76
2023/01/08 08:45:25;;;;;;;5.68;3.65;;;;;;;2.24;83.26;95659.53;5056816;28;20045;-78
2023/01/08 08:47:51;;;;;;;5.75;3.58;;;;;;;2.36;83.25;95654.59;5056310;28;20052;-76
2023/01/08 08:50:18;;;;;;;8.45;4.30;;;;;;;2.44;83.31;95662.03;5051499;28;20048;-78
2023/01/08 08:52:47;;;;;;;8.18;3.78;;;;;;;2.39;82.02;95663.97;5064456;28;20040;-76
2023/01/08 08:55:16;;;;;;;6.05;3.20;;;;;;;2.34;81.56;95665.59;5051725;28;20539;-77
2023/01/08 08:59:42;;;;;;;5.88;3.20;;;;;;;2.43;81.15;95673.06;5142010;27;20396;-77
2023/01/08 09:02:11;;;;;;;6.25;3.28;;;;;;;2.50;81.25;95676.22;5080020;27;20539;-76
2023/01/08 09:04:38;;;;;;;5.85;3.70;;;;;;;2.53;80.22;95672.97;5064915;28;20147;-76
2023/01/08 09:07:04;;;;;;;6.60;3.45;;;;;;;2.54;80.15;95670.00;5063305;28;20059;-76
2023/01/08 09:09:31;;;;;;;6.20;3.83;;;;;;;2.58;80.57;95670.25;5065321;28;20049;-76
2023/01/08 09:11:57;;;;;;;5.53;3.58;;;;;;;2.62;81.04;95649.78;5070804;28;20541;-76
2023/01/08 09:14:24;;;;;;;5.95;3.80;;;;;;;2.77;80.79;95657.69;5062131;28;20052;-78
2023/01/08 09:16:52;;;;;;;5.85;3.50;;;;;;;2.83;80.85;95651.16;5073145;27;20056;-75
2023/01/08 09:19:18;;;;;;;7.28;4.18;;;;;;;2.91;80.36;95648.91;5063727;28;20091;-76
2023/01/08 09:21:45;;;;;;;7.25;3.85;;;;;;;2.90;78.82;95658.09;5064902;28;20072;-75
2023/01/08 09:24:12;;;;;;;9.25;3.70;;;;;;;2.92;78.74;95659.38;5063638;28;20052;-76
2023/01/08 09:26:38;;;;;;;6.22;3.88;;;;;;;3.11;78.66;95667.50;5065607;28;20055;-76
2023/01/08 09:29:05;;;;;;;5.90;3.47;;;;;;;3.19;78.21;95674.97;5071364;28;20048;-76
2023/01/08 09:31:31;;;;;;;7.13;3.65;;;;;;;3.37;78.53;95678.78;5065695;28;20052;-76
2023/01/08 09:33:59;;;;;;;5.95;3.63;;;;;;;3.44;77.60;95675.72;5072493;28;20561;-75
2023/01/08 09:36:25;;;;;;;8.45;3.83;;;;;;;3.61;77.43;95676.84;5082904;28;20045;-75
2023/01/08 09:38:52;;;;;;;5.68;3.70;;;;;;;3.66;76.08;95667.91;5065815;28;20055;-75
2023/01/08 09:41:25;;;;;;;5.57;3.50;;;;;;;3.66;75.30;95667.91;5075660;28;20053;-75
2023/01/08 09:43:54;;;;;;;9.23;3.90;;;;;;;3.68;74.96;95671.09;5071271;28;20045;-74
2023/01/08 09:46:24;;;;;;;6.13;3.50;;;;;;;3.86;75.72;95666.78;5074308;28;20055;-77
2023/01/08 09:48:52;;;;;;;6.22;3.67;;;;;;;3.99;76.12;95665.28;5073912;28;20721;-77
2023/01/08 09:51:20;;;;;;;6.95;4.47;;;;;;;4.12;76.78;95664.50;5075365;28;20053;-75
2023/01/08 09:53:52;;;;;;;9.20;4.07;;;;;;;4.17;76.75;95667.94;5070499;28;20044;-75
2023/01/08 09:56:19;;;;;;;5.03;3.58;;;;;;;4.19;76.06;95654.97;5082478;28;20048;-74
2023/01/08 09:58:49;;;;;;;6.22;4.35;;;;;;;4.22;74.24;95650.88;5065963;28;20041;-74
2023/01/08 10:01:18;;;;;;;8.93;4.20;;;;;;;4.29;74.04;95651.31;5081591;28;20063;-76
2023/01/08 10:03:48;;;;;;;7.68;4.15;;;;;;;4.39;73.74;95653.84;5069256;28;20049;-76
2023/01/08 10:06:16;;;;;;;7.32;4.10;;;;;;;4.43;74.22;95646.75;5066677;28;20053;-76
2023/01/08 10:08:44;;;;;;;8.65;4.40;;;;;;;4.43;74.22;95627.88;5079042;28;20041;-75
2023/01/08 10:11:14;;;;;;;9.27;3.90;;;;;;;4.40;74.70;95625.78;5053446;28;20468;-75
2023/01/08 10:13:44;;;;;;;5.18;3.30;;;;;;;4.37;74.34;95607.50;5053720;28;20064;-76
2023/01/08 10:16:21;;;;;;;5.72;3.70;;;;;;;4.37;75.06;95607.50;5050730;28;20045;-76
2023/01/08 10:18:48;;;;;;;10.30;6.30;;;;;;;4.42;75.03;95595.84;5051390;28;20056;-75
2023/01/08 10:21:15;;;;;;;6.57;4.03;;;;;;;4.56;74.49;95604.75;5050581;28;20045;-76
2023/01/08 10:23:50;;;;;;;6.20;3.75;;;;;;;4.56;74.57;95609.34;5051664;28;20420;-75
2023/01/08 10:26:26;;;;;;;5.47;3.40;;;;;;;4.69;74.42;95612.03;5051070;28;20045;-78
2023/01/08 10:29:06;;;;;;;7.57;3.97;;;;;;;4.79;72.79;95607.56;5052170;28;20064;-77
2023/01/08 10:31:33;;;;;;;5.93;4.10;;;;;;;4.87;72.56;95614.97;5067161;28;20060;-78
2023/01/08 10:34:10;;;;;;;7.70;4.25;;;;;;;5.08;71.55;95618.06;5050882;28;20052;-76
2023/01/08 10:36:42;;;;;;;7.78;4.25;;;;;;;5.23;69.85;95617.75;5077815;28;20051;-75
2023/01/08 10:39:21;;;;;;;6.25;3.88;;;;;;;5.33;69.33;95603.25;5071450;28;20044;-76
2023/01/08 10:41:48;;;;;;;6.07;3.65;;;;;;;5.45;69.63;95604.31;5065066;28;20051;-75
2023/01/08 10:44:18;;;;;;;10.20;3.75;;;;;;;5.48;68.78;95611.00;5068406;28;20551;-76
2023/01/08 10:46:47;;;;;;;7.50;3.97;;;;;;;5.55;68.45;95607.91;5071116;28;20052;-76
2023/01/08 10:49:17;;;;;;;7.57;4.25;;;;;;;5.59;69.01;95615.09;5077516;28;20137;-76
2023/01/08 10:51:50;;;;;;;7.25;4.35;;;;;;;5.61;68.31;95596.69;5085006;28;20071;-75
2023/01/08 10:54:30;;;;;;;6.05;3.78;;;;;;;5.71;68.01;95606.44;5070697;28;20052;-76
2023/01/08 10:56:57;;;;;;;5.65;3.45;;;;;;;5.85;68.79;95601.81;5070620;28;20048;-75
2023/01/08 10:59:25;;;;;;;10.02;5.15;;;;;;;5.70;67.08;95610.25;5069650;28;20052;-76
2023/01/08 11:01:54;;;;;;;8.32;4.68;;;;;;;5.71;67.55;95590.25;5076929;28;20052;-76
2023/01/08 11:04:26;;;;;;;6.80;3.85;;;;;;;6.03;68.06;95591.16;5074604;28;20058;-76
2023/01/08 11:06:58;;;;;;;5.95;3.40;;;;;;;6.18;68.37;95598.91;5071809;28;20521;-76
2023/01/08 11:09:30;;;;;;;7.55;3.75;;;;;;;6.40;68.53;95590.75;5065861;28;20041;-77
2023/01/08 11:11:57;;;;;;;6.63;3.53;;;;;;;6.46;66.54;95578.69;5066163;28;20056;-75
2023/01/08 11:14:27;;;;;;;5.05;3.25;;;;;;;6.48;66.67;95571.09;5074549;28;20056;-75
2023/01/08 11:16:55;;;;;;;6.88;3.53;;;;;;;6.38;67.34;95571.34;5069686;28;20059;-76
2023/01/08 11:19:25;;;;;;;6.85;3.92;;;;;;;6.37;67.64;95585.97;5071452;28;20139;-75
2023/01/08 11:21:56;;;;;;;4.68;3.22;;;;;;;6.40;67.66;95596.16;5072975;28;20048;-75
2023/01/08 11:24:27;;;;;;;5.53;3.58;;;;;;;6.38;68.21;95589.47;5068688;28;20056;-75
2023/01/08 11:26:58;;;;;;;9.32;3.50;;;;;;;6.34;68.19;95592.00;5077234;28;20056;-75
2023/01/08 11:29:31;;;;;;;6.63;3.60;;;;;;;6.27;68.35;95583.53;5064397;28;20730;-75
2023/01/08 11:32:16;;;;;;;7.68;3.90;;;;;;;6.35;68.20;95582.75;5072239;28;20641;-75
2023/01/08 11:34:51;;;;;;;6.05;3.55;;;;;;;6.41;68.42;95586.13;5074308;28;20585;-76
2023/01/08 11:37:22;;;;;;;7.43;3.80;;;;;;;6.39;68.66;95583.75;5069592;28;20049;-77
2023/01/08 11:39:51;;;;;;;8.65;3.78;;;;;;;6.45;67.80;95577.09;5070388;28;20455;-76
2023/01/08 11:42:34;;;;;;;7.65;3.85;;;;;;;6.48;68.60;95571.09;5075914;28;20040;-76
2023/01/08 11:45:07;;;;;;;;;;;;;;;6.54;68.80;95564.41;5066908;28;20500;-77
2023/01/08 11:47:51;;;;;;;7.15;3.65;;;;;;;6.57;69.13;95551.38;5071839;28;19987;-75